createdAt,value
2018-07-26T00:01:43.087Z,47.90
2018-07-26T00:04:10.754Z,47.80
2018-07-26T00:06:38.405Z,47.60
2018-07-26T00:09:08.357Z,47.50
2018-07-26T00:11:36.004Z,47.30
2018-07-26T00:14:03.733Z,47.20
2018-07-26T00:16:31.384Z,47.00
2018-07-26T00:18:59.042Z,47.00
2018-07-26T00:21:26.690Z,47.20
2018-07-26T00:23:54.343Z,47.00
2018-07-26T00:26:22.029Z,46.80
2018-07-26T00:28:49.754Z,47.00
2018-07-26T00:31:17.454Z,46.90
2018-07-26T00:33:45.103Z,46.70
2018-07-26T00:36:12.784Z,46.80
2018-07-26T00:38:40.508Z,46.70
2018-07-26T00:41:08.167Z,46.60
2018-07-26T00:43:35.816Z,46.40
2018-07-26T00:46:03.499Z,46.30
2018-07-26T00:48:31.196Z,46.10
2018-07-26T00:50:58.883Z,46.30
2018-07-26T00:53:26.592Z,46.30
2018-07-26T00:55:54.270Z,46.40
2018-07-26T00:58:21.938Z,46.50
2018-07-26T01:00:49.661Z,46.30
2018-07-26T01:03:17.325Z,46.20
2018-07-26T01:05:45.038Z,46.00
2018-07-26T01:08:12.714Z,46.70
2018-07-26T01:10:40.383Z,46.30
2018-07-26T01:13:08.046Z,46.30
2018-07-26T01:15:35.714Z,46.60
2018-07-26T01:18:03.406Z,47.10
2018-07-26T01:20:31.058Z,47.10
2018-07-26T01:22:58.812Z,47.50
2018-07-26T01:25:26.505Z,47.60
2018-07-26T01:27:54.265Z,47.70
2018-07-26T01:30:22.346Z,47.90
2018-07-26T01:32:50.020Z,47.50
2018-07-26T01:35:17.692Z,47.50
2018-07-26T01:40:13.138Z,47.90
2018-07-26T01:43:32.180Z,47.70
2018-07-26T01:45:59.857Z,47.80
2018-07-26T01:48:27.547Z,48.20
2018-07-26T01:50:55.212Z,48.50
2018-07-26T01:53:22.866Z,48.50
2018-07-26T01:55:50.540Z,48.30
2018-07-26T01:58:18.208Z,48.30
2018-07-26T02:00:45.899Z,48.40
2018-07-26T02:03:13.560Z,48.50
2018-07-26T02:05:41.528Z,48.50
2018-07-26T02:08:09.189Z,48.80
2018-07-26T02:10:36.876Z,48.50
2018-07-26T02:13:04.539Z,48.40
2018-07-26T02:15:32.208Z,48.30
2018-07-26T02:17:59.893Z,48.50
2018-07-26T02:20:27.559Z,48.70
2018-07-26T02:22:55.262Z,48.70
2018-07-26T02:25:22.986Z,49.30
2018-07-26T02:27:50.679Z,48.50
2018-07-26T02:30:18.341Z,48.50
2018-07-26T02:32:46.168Z,48.60
2018-07-26T02:35:13.829Z,48.80
2018-07-26T02:37:41.506Z,48.60
2018-07-26T02:40:09.163Z,48.60
2018-07-26T02:42:36.829Z,48.50
2018-07-26T02:45:04.637Z,48.50
2018-07-26T02:47:32.302Z,48.70
2018-07-26T02:49:59.990Z,48.70
2018-07-26T02:52:27.675Z,48.30
2018-07-26T02:54:55.322Z,48.20
2018-07-26T02:57:23.010Z,48.00
2018-07-26T02:59:50.689Z,49.10
2018-07-26T03:02:18.433Z,48.40
2018-07-26T03:04:46.106Z,50.10
2018-07-26T03:07:13.834Z,48.30
2018-07-26T03:09:41.527Z,48.40
2018-07-26T03:12:09.219Z,48.50
2018-07-26T03:14:43.580Z,48.60
2018-07-26T03:17:14.872Z,49.00
2018-07-26T03:19:43.561Z,49.60
2018-07-26T03:22:11.207Z,49.70
2018-07-26T03:24:38.876Z,49.90
2018-07-26T03:29:34.549Z,49.70
2018-07-26T03:32:02.213Z,49.60
2018-07-26T03:34:29.897Z,49.60
2018-07-26T03:36:57.569Z,49.70
2018-07-26T03:39:25.241Z,50.00
2018-07-26T03:41:52.954Z,50.50
2018-07-26T03:44:21.100Z,50.40
2018-07-26T03:46:48.781Z,50.60
2018-07-26T03:49:16.442Z,50.00
2018-07-26T03:51:44.118Z,51.50
2018-07-26T03:54:11.802Z,50.90
2018-07-26T03:56:39.493Z,51.10
2018-07-26T03:59:07.149Z,51.40
2018-07-26T04:01:35.249Z,51.90
2018-07-26T04:04:03.110Z,51.90
2018-07-26T04:06:30.798Z,52.10
2018-07-26T04:09:29.237Z,52.40
2018-07-26T04:11:57.007Z,52.50
2018-07-26T04:14:25.457Z,52.40
2018-07-26T04:16:53.319Z,52.30
2018-07-26T04:19:21.016Z,52.20
2018-07-26T04:21:48.721Z,52.20
2018-07-26T04:24:16.822Z,52.50
2018-07-26T04:26:44.593Z,52.40
2018-07-26T04:29:12.279Z,52.20
2018-07-26T04:31:39.938Z,52.10
2018-07-26T04:34:07.634Z,52.20
2018-07-26T04:36:35.354Z,52.10
2018-07-26T04:39:06.222Z,52.90
2018-07-26T04:41:33.906Z,53.50
2018-07-26T04:44:01.619Z,53.60
2018-07-26T04:46:29.284Z,53.60
2018-07-26T04:48:57.072Z,53.50
2018-07-26T04:51:24.654Z,53.40
2018-07-26T04:53:52.401Z,53.60
2018-07-26T04:56:20.094Z,53.40
2018-07-26T04:58:47.744Z,53.20
2018-07-26T05:01:15.402Z,53.30
2018-07-26T05:03:43.069Z,53.60
2018-07-26T05:06:10.713Z,53.90
2018-07-26T05:08:38.341Z,53.90
2018-07-26T05:11:06.170Z,54.00
2018-07-26T05:13:33.857Z,53.80
2018-07-26T05:16:01.517Z,53.30
2018-07-26T05:18:29.204Z,53.20
2018-07-26T05:20:56.849Z,53.50
2018-07-26T05:23:24.505Z,53.30
2018-07-26T05:25:52.220Z,53.00
2018-07-26T05:28:19.871Z,52.70
2018-07-26T05:30:47.591Z,52.50
2018-07-26T05:33:15.251Z,52.50
2018-07-26T05:35:42.930Z,52.20
2018-07-26T05:38:10.590Z,52.00
2018-07-26T05:40:38.307Z,52.10
2018-07-26T05:43:06.019Z,52.40
2018-07-26T05:45:33.671Z,52.10
2018-07-26T05:48:01.432Z,52.50
2018-07-26T05:50:29.177Z,52.50
2018-07-26T05:52:56.900Z,52.60
2018-07-26T05:55:24.630Z,53.00
2018-07-26T05:57:52.388Z,52.70
2018-07-26T06:00:20.051Z,52.70
2018-07-26T06:02:47.759Z,52.40
2018-07-26T06:05:15.451Z,52.10
2018-07-26T06:07:43.153Z,52.20
2018-07-26T06:10:10.858Z,52.20
2018-07-26T06:12:38.569Z,51.80
2018-07-26T06:17:36.100Z,51.40
2018-07-26T06:20:06.554Z,51.30
2018-07-26T06:22:34.231Z,51.90
2018-07-26T06:25:01.923Z,52.10
2018-07-26T06:27:29.570Z,52.40
2018-07-26T06:29:57.219Z,52.10
2018-07-26T06:32:24.914Z,52.10
2018-07-26T06:34:52.630Z,51.80
2018-07-26T06:37:20.294Z,51.10
2018-07-26T06:39:47.974Z,50.70
2018-07-26T06:42:15.605Z,50.60
2018-07-26T06:44:43.280Z,50.40
2018-07-26T06:47:11.456Z,50.20
2018-07-26T06:49:39.083Z,50.10
2018-07-26T06:52:06.944Z,50.40
2018-07-26T06:54:34.629Z,50.10
2018-07-26T06:57:02.302Z,49.70
2018-07-26T06:59:29.951Z,49.00
2018-07-26T07:01:57.636Z,48.60
2018-07-26T07:04:25.300Z,48.90
2018-07-26T07:06:52.981Z,48.70
2018-07-26T07:09:20.653Z,48.50
2018-07-26T07:11:48.328Z,48.20
2018-07-26T07:14:16.005Z,48.50
2018-07-26T07:16:43.673Z,47.90
2018-07-26T07:19:11.514Z,47.30
2018-07-26T07:21:39.165Z,47.80
2018-07-26T07:24:06.881Z,46.90
2018-07-26T07:26:34.551Z,46.60
2018-07-26T07:29:02.233Z,46.20
2018-07-26T07:31:29.915Z,47.90
2018-07-26T07:33:57.622Z,47.10
2018-07-26T07:36:25.369Z,46.50
2018-07-26T07:38:53.329Z,46.40
2018-07-26T07:41:20.977Z,46.30
2018-07-26T07:43:48.665Z,46.50
2018-07-26T07:46:16.632Z,46.00
2018-07-26T07:48:44.342Z,46.00
2018-07-26T07:51:12.016Z,44.90
2018-07-26T07:53:39.701Z,44.60
2018-07-26T07:56:07.445Z,43.80
2018-07-26T07:58:35.124Z,43.70
2018-07-26T08:01:02.859Z,42.80
2018-07-26T08:03:30.526Z,41.90
2018-07-26T08:05:58.240Z,41.40
2018-07-26T08:08:25.941Z,41.00
2018-07-26T08:10:53.682Z,39.90
2018-07-26T08:13:21.412Z,39.40
2018-07-26T08:15:49.109Z,38.80
2018-07-26T08:18:16.874Z,38.20
2018-07-26T08:20:44.608Z,37.80
2018-07-26T08:23:12.299Z,37.20
2018-07-26T08:25:40.053Z,37.00
2018-07-26T08:28:07.813Z,38.40
2018-07-26T08:30:35.518Z,38.50
2018-07-26T08:33:03.230Z,38.40
2018-07-26T08:35:30.915Z,38.10
2018-07-26T08:40:26.443Z,36.80
2018-07-26T08:42:54.433Z,36.50
2018-07-26T08:45:22.138Z,35.90
2018-07-26T08:47:49.939Z,35.40
2018-07-26T08:50:17.681Z,34.40
2018-07-26T08:52:45.386Z,34.70
2018-07-26T08:55:13.122Z,34.50
2018-07-26T08:57:40.811Z,33.80
2018-07-26T09:00:09.029Z,33.10
2018-07-26T09:02:36.925Z,32.80
2018-07-26T09:05:05.044Z,32.90
2018-07-26T09:07:32.734Z,32.70
2018-07-26T09:12:28.190Z,32.40
2018-07-26T09:14:56.005Z,32.80
2018-07-26T09:17:23.926Z,31.20
2018-07-26T09:19:51.646Z,30.90
2018-07-26T09:22:19.386Z,30.80
2018-07-26T09:24:47.091Z,30.10
2018-07-26T09:27:14.782Z,29.50
2018-07-26T09:29:42.473Z,28.70
2018-07-26T09:32:10.170Z,28.50
2018-07-26T09:34:37.862Z,28.40
2018-07-26T09:37:05.578Z,28.90
2018-07-26T09:39:33.615Z,28.70
2018-07-26T09:42:01.401Z,28.60
2018-07-26T09:44:29.370Z,28.10
2018-07-26T09:46:57.076Z,27.50
2018-07-26T09:49:24.837Z,27.10
2018-07-26T09:51:52.517Z,26.80
2018-07-26T09:54:20.208Z,26.40
2018-07-26T09:56:47.893Z,26.40
2018-07-26T09:59:15.653Z,26.10
2018-07-26T10:01:43.329Z,26.50
2018-07-26T10:04:10.979Z,26.20
2018-07-26T10:06:38.643Z,25.80
2018-07-26T10:09:09.194Z,25.50
2018-07-26T10:11:36.930Z,25.60
2018-07-26T10:14:04.664Z,25.30
2018-07-26T10:16:32.388Z,25.30
2018-07-26T10:19:00.072Z,26.00
2018-07-26T10:21:27.771Z,25.20
2018-07-26T10:23:55.450Z,25.00
2018-07-26T10:26:23.141Z,24.80
2018-07-26T10:28:52.025Z,24.80
2018-07-26T10:31:19.737Z,24.80
2018-07-26T10:33:47.403Z,24.70
2018-07-26T10:36:15.071Z,24.30
2018-07-26T10:38:42.769Z,23.80
2018-07-26T10:41:10.454Z,23.60
2018-07-26T10:43:38.121Z,24.30
2018-07-26T10:46:05.777Z,24.30
2018-07-26T10:48:33.429Z,24.50
2018-07-26T10:51:01.323Z,24.00
2018-07-26T10:53:29.007Z,23.10
2018-07-26T10:55:56.715Z,22.90
2018-07-26T10:58:24.368Z,22.70
2018-07-26T11:00:52.074Z,22.10
2018-07-26T11:03:20.349Z,21.40
2018-07-26T11:05:48.010Z,21.20
2018-07-26T11:08:15.666Z,20.90
2018-07-26T11:10:43.305Z,20.60
2018-07-26T11:13:10.976Z,20.30
2018-07-26T11:15:38.660Z,20.30
2018-07-26T11:18:06.425Z,20.20
2018-07-26T11:20:34.122Z,20.00
2018-07-26T11:23:01.819Z,20.90
2018-07-26T11:25:29.568Z,20.90
2018-07-26T11:27:57.255Z,20.40
2018-07-26T11:30:24.997Z,20.10
2018-07-26T11:32:52.682Z,20.60
2018-07-26T11:35:20.382Z,20.10
2018-07-26T11:37:48.146Z,20.70
2018-07-26T11:40:15.785Z,20.90
2018-07-26T11:42:43.496Z,20.10
2018-07-26T11:45:11.196Z,19.40
2018-07-26T11:47:39.499Z,19.10
2018-07-26T11:50:08.833Z,18.70
2018-07-26T11:52:36.660Z,18.60
2018-07-26T11:55:04.574Z,18.60
2018-07-26T11:57:32.284Z,18.30
2018-07-26T12:00:00.262Z,18.10
2018-07-26T12:02:28.031Z,17.60
2018-07-26T12:04:55.708Z,17.40
2018-07-26T12:07:23.422Z,17.40
2018-07-26T12:09:51.154Z,17.10
2018-07-26T12:12:18.922Z,16.90
2018-07-26T12:14:46.712Z,17.20
2018-07-26T12:17:14.382Z,17.00
2018-07-26T12:22:09.853Z,16.70
2018-07-26T12:24:37.527Z,17.10
2018-07-26T12:27:05.254Z,16.80
2018-07-26T12:29:33.158Z,17.40
2018-07-26T12:32:00.899Z,17.80
2018-07-26T12:34:28.623Z,18.40
2018-07-26T12:36:56.751Z,18.80
2018-07-26T12:39:24.474Z,19.00
2018-07-26T12:41:52.194Z,18.00
2018-07-26T12:44:19.984Z,17.80
2018-07-26T12:46:47.727Z,17.00
2018-07-26T12:49:15.417Z,16.50
2018-07-26T12:51:43.109Z,16.60
2018-07-26T12:54:10.834Z,16.80
2018-07-26T12:56:38.579Z,16.60
2018-07-26T12:59:06.280Z,16.80
2018-07-26T13:01:34.075Z,17.40
2018-07-26T13:04:01.761Z,17.20
2018-07-26T13:06:29.474Z,16.80
2018-07-26T13:08:57.194Z,16.80
2018-07-26T13:11:24.878Z,16.60
2018-07-26T13:13:52.546Z,16.30
2018-07-26T13:16:20.323Z,16.40
2018-07-26T13:18:48.053Z,16.60
2018-07-26T13:21:15.772Z,16.10
2018-07-26T13:23:43.478Z,16.30
2018-07-26T13:26:11.209Z,16.20
2018-07-26T13:28:38.945Z,16.30
2018-07-26T13:31:06.697Z,16.10
2018-07-26T13:33:34.385Z,16.20
2018-07-26T13:36:02.101Z,16.20
2018-07-26T13:38:29.841Z,15.70
2018-07-26T13:43:25.296Z,15.70
2018-07-26T13:45:53.000Z,15.30
2018-07-26T13:48:20.736Z,15.40
2018-07-26T13:50:48.778Z,15.00
2018-07-26T13:53:16.468Z,15.30
2018-07-26T13:55:44.201Z,15.50
2018-07-26T13:58:11.969Z,16.10
2018-07-26T14:00:39.710Z,15.90
2018-07-26T14:03:07.406Z,15.70
2018-07-26T14:05:35.090Z,15.70
2018-07-26T14:10:30.598Z,15.90
2018-07-26T14:12:58.274Z,16.20
2018-07-26T14:15:26.056Z,16.40
2018-07-26T14:17:53.743Z,16.70
2018-07-26T14:20:21.433Z,16.60
2018-07-26T14:22:49.175Z,17.00
2018-07-26T14:25:17.039Z,17.50
2018-07-26T14:27:44.755Z,17.20
2018-07-26T14:30:12.482Z,16.50
2018-07-26T14:32:40.172Z,16.50
2018-07-26T14:35:07.877Z,16.70
2018-07-26T14:37:35.632Z,16.90
2018-07-26T14:40:04.144Z,16.90
2018-07-26T14:42:31.871Z,16.70
2018-07-26T14:44:59.615Z,16.80
2018-07-26T14:49:55.078Z,17.40
2018-07-26T14:52:22.759Z,17.10
2018-07-26T14:54:50.494Z,17.00
2018-07-26T14:57:18.195Z,17.20
2018-07-26T14:59:45.877Z,17.60
2018-07-26T15:02:13.573Z,17.10
2018-07-26T15:04:41.254Z,17.10
2018-07-26T15:09:36.621Z,17.00
2018-07-26T15:12:04.355Z,16.40
2018-07-26T15:14:32.068Z,16.10
2018-07-26T15:16:59.844Z,16.00
2018-07-26T15:19:27.593Z,16.50
2018-07-26T15:21:55.286Z,16.90
2018-07-26T15:24:23.083Z,16.40
2018-07-26T15:26:50.850Z,16.70
2018-07-26T15:31:46.326Z,18.70
2018-07-26T15:34:14.056Z,18.40
2018-07-26T15:36:41.723Z,18.50
2018-07-26T15:39:10.416Z,18.50
2018-07-26T15:44:10.645Z,18.30
2018-07-26T15:46:38.494Z,18.30
2018-07-26T15:49:06.483Z,18.60
2018-07-26T15:51:34.244Z,19.30
2018-07-26T15:54:01.875Z,19.70
2018-07-26T15:56:29.662Z,20.00
2018-07-26T15:58:57.398Z,20.10
2018-07-26T16:01:25.103Z,19.90
2018-07-26T16:03:52.862Z,20.00
2018-07-26T16:06:20.651Z,20.00
2018-07-26T16:08:48.367Z,20.00
2018-07-26T16:11:16.186Z,20.00
2018-07-26T16:13:44.736Z,19.80
2018-07-26T16:16:12.605Z,19.80
2018-07-26T16:18:40.362Z,19.80
2018-07-26T16:21:08.101Z,19.40
2018-07-26T16:23:35.837Z,19.30
2018-07-26T16:26:04.579Z,19.10
2018-07-26T16:28:33.782Z,18.70
2018-07-26T16:31:01.535Z,18.40
2018-07-26T16:33:29.291Z,18.70
2018-07-26T16:35:57.011Z,18.80
2018-07-26T16:38:24.720Z,18.60
2018-07-26T16:40:52.508Z,18.20
2018-07-26T16:45:48.221Z,17.90
2018-07-26T16:48:15.998Z,17.60
2018-07-26T16:50:43.706Z,17.60
2018-07-26T16:53:11.384Z,17.90
2018-07-26T16:55:39.094Z,17.70
2018-07-26T16:58:06.799Z,17.60
2018-07-26T17:03:02.642Z,17.50
2018-07-26T17:05:30.384Z,17.50
2018-07-26T17:07:58.201Z,17.30
2018-07-26T17:10:25.980Z,16.90
2018-07-26T17:12:53.678Z,17.10
2018-07-26T17:15:21.430Z,17.90
2018-07-26T17:17:49.220Z,18.30
2018-07-26T17:20:17.097Z,18.40
2018-07-26T17:22:44.807Z,18.40
2018-07-26T17:25:12.513Z,18.70
2018-07-26T17:27:40.336Z,18.80
2018-07-26T17:32:35.869Z,19.60
2018-07-26T17:35:03.665Z,19.80
2018-07-26T17:37:31.345Z,19.80
2018-07-26T17:39:59.005Z,19.50
2018-07-26T17:42:26.727Z,19.80
2018-07-26T17:44:54.463Z,20.00
2018-07-26T17:47:22.168Z,20.10
2018-07-26T17:49:49.876Z,20.30
2018-07-26T17:52:17.549Z,20.60
2018-07-26T17:54:45.253Z,21.00
2018-07-26T17:57:12.949Z,21.10
2018-07-26T17:59:40.686Z,21.40
2018-07-26T18:02:08.396Z,21.40
2018-07-26T18:04:36.120Z,21.70
2018-07-26T18:07:04.123Z,21.50
2018-07-26T18:09:31.847Z,22.10
2018-07-26T18:11:59.598Z,21.80
2018-07-26T18:14:27.289Z,21.90
2018-07-26T18:16:55.015Z,22.00
2018-07-26T18:19:22.689Z,22.30
2018-07-26T18:21:50.536Z,22.30
2018-07-26T18:24:19.482Z,23.30
2018-07-26T18:26:47.165Z,24.50
2018-07-26T18:29:14.864Z,25.10
2018-07-26T18:31:42.761Z,25.40
2018-07-26T18:34:10.257Z,25.70
2018-07-26T18:36:37.967Z,25.80
2018-07-26T18:39:09.193Z,25.80
2018-07-26T18:41:36.909Z,24.90
2018-07-26T18:44:05.175Z,25.70
2018-07-26T18:46:32.704Z,26.10
2018-07-26T18:49:00.362Z,26.30
2018-07-26T18:51:28.124Z,26.40
2018-07-26T18:53:55.801Z,27.90
2018-07-26T18:56:23.453Z,28.20
2018-07-26T18:58:51.187Z,28.30
2018-07-26T19:01:18.849Z,29.50
2018-07-26T19:03:46.682Z,30.50
2018-07-26T19:06:14.363Z,31.20
2018-07-26T19:11:09.810Z,30.30
2018-07-26T19:13:37.484Z,30.40
2018-07-26T19:16:06.370Z,29.90
2018-07-26T19:18:34.290Z,29.80
2018-07-26T19:21:02.011Z,30.00
2018-07-26T19:23:29.890Z,29.80
2018-07-26T19:25:57.605Z,30.70
2018-07-26T19:28:25.309Z,30.00
2018-07-26T19:30:52.995Z,30.10
2018-07-26T19:33:20.694Z,30.00
2018-07-26T19:35:48.433Z,30.10
2018-07-26T19:38:16.335Z,29.80
2018-07-26T19:40:44.028Z,29.60
2018-07-26T19:43:11.679Z,29.90
2018-07-26T19:45:39.390Z,29.90
2018-07-26T19:48:07.123Z,30.00
2018-07-26T19:50:34.807Z,30.20
2018-07-26T19:55:30.417Z,30.80
2018-07-26T19:57:58.103Z,31.20
2018-07-26T20:00:25.842Z,31.20
2018-07-26T20:02:53.567Z,31.10
2018-07-26T20:05:21.328Z,31.10
2018-07-26T20:07:49.297Z,31.50
2018-07-26T20:10:17.086Z,31.40
2018-07-26T20:12:44.824Z,31.20
2018-07-26T20:15:12.571Z,31.30
2018-07-26T20:17:40.264Z,31.30
2018-07-26T20:20:10.155Z,32.00
2018-07-26T20:22:38.059Z,33.00
2018-07-26T20:25:05.780Z,33.10
2018-07-26T20:27:33.534Z,32.80
2018-07-26T20:30:01.270Z,32.80
2018-07-26T20:32:29.034Z,33.00
2018-07-26T20:34:56.722Z,34.60
2018-07-26T20:37:24.647Z,33.20
2018-07-26T20:39:52.372Z,33.60
2018-07-26T20:42:20.098Z,34.20
2018-07-26T20:44:47.778Z,34.50
2018-07-26T20:47:15.501Z,35.50
2018-07-26T20:49:43.189Z,36.20
2018-07-26T20:52:11.346Z,35.20
2018-07-26T20:54:39.110Z,35.00
2018-07-26T20:57:07.671Z,35.20
2018-07-26T21:02:06.564Z,36.00
2018-07-26T21:04:34.410Z,35.90
2018-07-26T21:07:02.086Z,35.50
2018-07-26T21:09:29.812Z,35.20
2018-07-26T21:11:57.514Z,34.80
2018-07-26T21:14:25.215Z,34.60
2018-07-26T21:16:52.970Z,34.90
2018-07-26T21:21:48.517Z,34.50
2018-07-26T21:24:16.191Z,34.40
2018-07-26T21:26:43.905Z,34.10
2018-07-26T21:29:11.614Z,33.80
2018-07-26T21:31:39.292Z,33.90
2018-07-26T21:34:07.013Z,34.10
2018-07-26T21:36:34.729Z,34.00
2018-07-26T21:39:02.598Z,34.00
2018-07-26T21:41:30.354Z,34.20
2018-07-26T21:43:58.082Z,34.20
2018-07-26T21:46:25.846Z,34.40
2018-07-26T21:48:53.529Z,34.60
2018-07-26T21:51:21.201Z,34.70
2018-07-26T21:53:48.898Z,35.00
2018-07-26T21:56:16.561Z,35.30
2018-07-26T22:01:11.946Z,35.50
2018-07-26T22:03:39.654Z,35.50
2018-07-26T22:06:07.394Z,35.50
2018-07-26T22:08:35.187Z,35.40
2018-07-26T22:11:02.876Z,36.70
2018-07-26T22:13:30.599Z,35.10
2018-07-26T22:15:58.559Z,34.90
2018-07-26T22:18:26.196Z,35.00
2018-07-26T22:20:53.942Z,34.60
2018-07-26T22:23:21.955Z,34.50
2018-07-26T22:25:50.190Z,34.30
2018-07-26T22:28:18.468Z,33.50
2018-07-26T22:30:46.817Z,33.00
2018-07-26T22:33:14.526Z,32.80
2018-07-26T22:35:42.606Z,32.50
2018-07-26T22:38:12.430Z,32.30
2018-07-26T22:40:40.319Z,31.80
2018-07-26T22:43:08.085Z,31.40
2018-07-26T22:45:36.337Z,31.20
2018-07-26T22:48:04.085Z,30.90
2018-07-26T22:50:31.830Z,30.60
2018-07-26T22:52:59.575Z,30.50
2018-07-26T22:55:27.409Z,30.30
2018-07-26T22:57:55.102Z,30.10
2018-07-26T23:00:22.802Z,30.60
2018-07-26T23:02:50.514Z,30.90
2018-07-26T23:05:18.335Z,30.80
2018-07-26T23:07:46.056Z,30.80
2018-07-26T23:10:13.780Z,31.20
2018-07-26T23:12:41.517Z,31.30
2018-07-26T23:15:10.359Z,31.40
2018-07-26T23:17:38.542Z,32.10
2018-07-26T23:20:07.294Z,32.40
2018-07-26T23:22:35.098Z,32.80
2018-07-26T23:25:02.865Z,32.80
2018-07-26T23:27:30.575Z,33.20
2018-07-26T23:29:58.285Z,33.50
2018-07-26T23:32:26.045Z,33.90
2018-07-26T23:34:53.783Z,33.50
2018-07-26T23:37:21.485Z,33.70
2018-07-26T23:39:49.195Z,34.30
2018-07-26T23:42:16.892Z,34.10
2018-07-26T23:44:44.586Z,34.10
2018-07-26T23:47:12.267Z,34.50
2018-07-26T23:49:39.941Z,34.30
2018-07-26T23:52:07.649Z,34.20
2018-07-26T23:54:35.329Z,34.20
2018-07-26T23:57:03.028Z,34.40
2018-07-26T23:59:30.731Z,34.50
